Time;durP1;ratioP1;P1;durP2;ratioP2;P2;SDS_P1;SDS_P2;PMS_P1;PMS_P2;Temp;Humidity;BMP_temperature;BMP_pressure;BME280_temperature;BME280_humidity;BME280_pressure;Samples;Min_cycle;Max_cycle;Signal;HPM_P1;HPM_P2
2024/01/06 00:00:49;;;;;;;7.93;6.37;;;9.70;99.90;;;;;;5013941;28;21006;-27
2024/01/06 00:03:15;;;;;;;8.27;6.50;;;9.70;99.90;;;;;;4998279;28;20429;-28
2024/01/06 00:05:43;;;;;;;8.00;7.17;;;9.70;99.90;;;;;;5000086;28;20546;-28
2024/01/06 00:08:09;;;;;;;7.50;6.67;;;9.70;99.90;;;;;;4997727;28;20468;-28
2024/01/06 00:10:35;;;;;;;7.17;6.43;;;9.70;99.90;;;;;;4999122;28;21066;-28
2024/01/06 00:13:01;;;;;;;7.27;6.57;;;9.70;99.90;;;;;;4998283;28;20994;-27
2024/01/06 00:15:27;;;;;;;7.80;6.30;;;9.70;99.90;;;;;;5000398;28;20498;-28
2024/01/06 00:17:53;;;;;;;8.90;6.70;;;9.70;99.90;;;;;;4999273;28;20449;-28
2024/01/06 00:20:19;;;;;;;8.43;6.53;;;9.70;99.90;;;;;;4998707;28;20459;-27
2024/01/06 00:22:45;;;;;;;7.27;6.57;;;9.70;99.90;;;;;;5014765;28;20913;-28
2024/01/06 00:25:17;;;;;;;9.07;7.57;;;9.70;99.90;;;;;;4999815;28;20436;-28
2024/01/06 00:27:42;;;;;;;10.50;6.77;;;9.70;99.90;;;;;;4999948;28;20499;-27
2024/01/06 00:30:09;;;;;;;8.80;6.50;;;9.70;99.90;;;;;;4998003;28;20471;-28
2024/01/06 00:33:11;;;;;;;;;;;;;;;;;;;;;
2024/01/06 00:36:16;;;;;;;7.80;6.87;;;9.70;99.90;;;;;;4983554;28;20454;-26
2024/01/06 00:38:42;;;;;;;8.53;6.67;;;9.70;99.90;;;;;;4998627;28;20440;-27
2024/01/06 00:41:11;;;;;;;9.57;7.10;;;9.70;99.90;;;;;;4999088;28;20459;-28
2024/01/06 00:43:46;;;;;;;8.60;6.70;;;9.70;99.90;;;;;;4999369;28;20432;-28
2024/01/06 00:46:14;;;;;;;9.10;7.40;;;9.70;99.90;;;;;;4998075;28;20428;-28
2024/01/06 00:48:42;;;;;;;9.23;6.77;;;9.70;99.90;;;;;;4998809;28;20827;-28
2024/01/06 00:51:11;;;;;;;8.87;6.63;;;9.70;99.90;;;;;;4997501;28;20468;-28
2024/01/06 00:53:37;;;;;;;8.00;6.90;;;9.70;99.90;;;;;;4999591;28;20444;-28
2024/01/06 00:56:06;;;;;;;10.17;6.80;;;9.70;99.90;;;;;;5013896;28;20456;-27
2024/01/06 00:58:32;;;;;;;8.93;7.17;;;9.70;99.90;;;;;;4999524;28;20448;-28
2024/01/06 01:00:58;;;;;;;7.47;6.33;;;9.70;99.90;;;;;;5014065;28;20487;-28
2024/01/06 01:03:24;;;;;;;8.10;6.47;;;9.70;99.90;;;;;;4998131;28;20428;-28
2024/01/06 01:05:53;;;;;;;11.20;7.30;;;9.70;99.90;;;;;;4998052;28;21366;-28
2024/01/06 01:08:19;;;;;;;9.13;7.03;;;9.70;99.90;;;;;;4998555;28;20456;-28
2024/01/06 01:10:45;;;;;;;9.30;6.83;;;9.70;99.90;;;;;;4997570;28;20471;-27
2024/01/06 01:13:12;;;;;;;8.43;7.50;;;9.70;99.90;;;;;;4998627;28;20425;-28
2024/01/06 01:15:38;;;;;;;9.20;7.33;;;9.70;99.90;;;;;;4997303;28;20448;-28
2024/01/06 01:18:04;;;;;;;8.37;6.80;;;9.70;99.90;;;;;;4996800;28;20453;-28
2024/01/06 01:20:30;;;;;;;8.97;7.23;;;9.70;99.90;;;;;;4981110;28;20460;-28
2024/01/06 01:22:58;;;;;;;8.70;7.43;;;9.70;99.90;;;;;;4999192;28;20428;-28
2024/01/06 01:25:25;;;;;;;8.53;7.20;;;9.70;99.90;;;;;;4998488;28;20443;-28
2024/01/06 01:27:51;;;;;;;8.10;6.53;;;9.70;99.90;;;;;;4981111;28;20523;-26
2024/01/06 01:30:17;;;;;;;7.50;6.47;;;9.70;99.90;;;;;;4997830;28;20504;-28
2024/01/06 01:32:43;;;;;;;8.50;7.40;;;9.70;99.90;;;;;;4980252;28;20424;-28
2024/01/06 01:35:11;;;;;;;9.67;7.30;;;9.70;99.90;;;;;;5012681;28;21236;-28
2024/01/06 01:37:37;;;;;;;9.33;7.90;;;9.70;99.90;;;;;;4998086;28;20456;-28
2024/01/06 01:40:05;;;;;;;9.20;7.13;;;9.70;99.90;;;;;;4996998;28;20510;-27
2024/01/06 01:42:37;;;;;;;9.50;7.40;;;9.70;99.90;;;;;;4997973;28;20451;-26
2024/01/06 01:45:04;;;;;;;9.20;7.97;;;9.70;99.90;;;;;;4999718;28;20649;-26
2024/01/06 01:47:30;;;;;;;10.77;7.97;;;9.70;99.90;;;;;;4997394;28;20807;-27
2024/01/06 01:49:57;;;;;;;10.93;8.20;;;9.70;99.90;;;;;;4996077;28;20484;-27
2024/01/06 01:52:23;;;;;;;8.50;7.27;;;9.70;99.90;;;;;;4985246;28;20436;-27
2024/01/06 01:54:51;;;;;;;9.20;7.93;;;9.70;99.90;;;;;;4997955;28;20952;-27
2024/01/06 01:57:23;;;;;;;8.57;7.00;;;9.70;99.90;;;;;;4993666;28;20437;-28
2024/01/06 01:59:49;;;;;;;9.50;7.10;;;9.70;99.90;;;;;;4996064;28;20463;-28
2024/01/06 02:02:18;;;;;;;10.20;7.50;;;9.70;99.90;;;;;;4998129;28;20438;-28
2024/01/06 02:04:47;;;;;;;7.80;6.97;;;9.70;99.90;;;;;;5008485;28;20843;-28
2024/01/06 02:07:16;;;;;;;8.90;7.63;;;9.70;99.90;;;;;;4996793;28;20443;-28
2024/01/06 02:09:42;;;;;;;7.90;7.10;;;9.70;99.90;;;;;;4998036;28;20587;-27
2024/01/06 02:12:10;;;;;;;8.40;6.70;;;9.70;99.90;;;;;;4996748;28;20449;-27
2024/01/06 02:14:39;;;;;;;8.40;7.50;;;9.70;99.90;;;;;;4995485;28;20428;-26
2024/01/06 02:17:05;;;;;;;12.40;7.57;;;9.70;99.90;;;;;;4997566;28;20793;-28
2024/01/06 02:19:31;;;;;;;9.93;7.40;;;9.70;99.90;;;;;;4997883;28;20452;-27
2024/01/06 02:21:57;;;;;;;9.67;8.00;;;9.70;99.90;;;;;;5011819;28;20444;-28
2024/01/06 02:24:23;;;;;;;10.17;7.57;;;9.70;99.90;;;;;;4998266;28;20951;-28
2024/01/06 02:26:49;;;;;;;9.17;6.97;;;9.70;99.90;;;;;;4993304;28;20430;-26
2024/01/06 02:29:15;;;;;;;10.73;7.70;;;9.70;99.90;;;;;;4997789;28;20444;-28
2024/01/06 02:31:41;;;;;;;8.73;7.37;;;9.70;99.90;;;;;;4995662;28;20428;-26
2024/01/06 02:34:07;;;;;;;8.90;7.10;;;9.70;99.90;;;;;;4998380;28;20421;-27
2024/01/06 02:36:33;;;;;;;9.83;6.63;;;9.70;99.90;;;;;;4995841;28;20447;-28
2024/01/06 02:38:59;;;;;;;8.30;7.00;;;9.70;99.90;;;;;;4996597;28;20584;-27
2024/01/06 02:41:25;;;;;;;8.83;6.90;;;9.70;99.90;;;;;;4996993;28;20560;-27
2024/01/06 02:43:51;;;;;;;7.80;6.80;;;9.70;99.90;;;;;;4993611;28;20461;-28
2024/01/06 02:46:17;;;;;;;7.90;7.10;;;9.70;99.90;;;;;;4996796;28;20896;-28
2024/01/06 02:48:44;;;;;;;7.50;6.50;;;9.70;99.90;;;;;;4994867;28;20721;-28
2024/01/06 02:51:13;;;;;;;9.73;7.07;;;9.70;99.90;;;;;;4997324;28;20564;-27
2024/01/06 02:53:42;;;;;;;8.80;6.83;;;9.70;99.90;;;;;;4995962;28;20436;-28
2024/01/06 02:56:14;;;;;;;8.63;7.20;;;9.70;99.90;;;;;;4997754;28;20624;-27
2024/01/06 02:58:41;;;;;;;9.33;7.70;;;9.70;99.90;;;;;;5017694;28;20460;-27
2024/01/06 03:01:07;;;;;;;9.50;7.60;;;9.70;99.90;;;;;;5000579;28;21013;-27
2024/01/06 03:03:37;;;;;;;9.07;6.73;;;9.70;99.90;;;;;;5002932;28;20436;-26
2024/01/06 03:06:04;;;;;;;8.70;7.50;;;9.70;99.90;;;;;;4982179;28;20491;-27
2024/01/06 03:08:30;;;;;;;10.43;7.40;;;9.70;99.90;;;;;;4999181;28;20959;-26
2024/01/06 03:10:57;;;;;;;10.33;7.60;;;9.70;99.90;;;;;;4975320;28;20469;-27
2024/01/06 03:13:26;;;;;;;10.20;7.30;;;9.70;99.90;;;;;;4996532;28;21276;-27
2024/01/06 03:15:52;;;;;;;9.03;7.03;;;9.70;99.90;;;;;;4980034;28;20441;-28
2024/01/06 03:18:18;;;;;;;10.53;9.00;;;9.70;99.90;;;;;;4995912;28;20499;-28
2024/01/06 03:20:44;;;;;;;8.20;7.37;;;9.70;99.90;;;;;;4997443;28;20848;-27
2024/01/06 03:23:10;;;;;;;8.03;7.07;;;9.70;99.90;;;;;;4995896;28;20435;-27
2024/01/06 03:25:36;;;;;;;9.43;7.63;;;9.70;99.90;;;;;;4997586;28;20425;-28
2024/01/06 03:28:02;;;;;;;9.70;7.60;;;9.70;99.90;;;;;;4981098;28;20445;-28
2024/01/06 03:30:28;;;;;;;9.90;7.33;;;9.70;99.90;;;;;;4995802;28;20940;-28
2024/01/06 03:32:57;;;;;;;10.77;7.80;;;9.70;99.90;;;;;;4999367;28;20543;-27
2024/01/06 03:35:25;;;;;;;10.87;8.10;;;9.70;99.90;;;;;;4996626;28;20432;-28
2024/01/06 03:37:51;;;;;;;10.97;8.17;;;9.70;99.90;;;;;;4996501;28;21167;-27
2024/01/06 03:40:20;;;;;;;9.40;7.00;;;9.70;99.90;;;;;;4999296;28;20432;-28
2024/01/06 03:42:45;;;;;;;11.37;8.03;;;9.70;99.90;;;;;;4999076;28;20452;-28
2024/01/06 03:45:14;;;;;;;8.67;7.00;;;9.70;99.90;;;;;;4997423;28;20424;-26
2024/01/06 03:47:40;;;;;;;10.97;7.13;;;9.70;99.90;;;;;;4996988;28;20661;-27
2024/01/06 03:50:06;;;;;;;10.00;7.80;;;9.70;99.90;;;;;;4980550;28;20536;-28
2024/01/06 03:52:33;;;;;;;10.40;6.73;;;9.70;99.90;;;;;;4998089;28;20845;-27
2024/01/06 03:54:59;;;;;;;9.50;7.47;;;9.70;99.90;;;;;;4998269;28;20428;-27
2024/01/06 03:57:25;;;;;;;11.47;8.30;;;9.70;99.90;;;;;;4998274;28;20954;-28
2024/01/06 03:59:53;;;;;;;8.53;7.40;;;9.70;99.90;;;;;;4998256;28;20439;-26
2024/01/06 04:02:19;;;;;;;9.23;7.50;;;9.70;99.90;;;;;;4996062;28;20435;-27
2024/01/06 04:04:45;;;;;;;9.73;7.17;;;9.70;99.90;;;;;;4998172;28;20501;-28
2024/01/06 04:07:11;;;;;;;9.33;7.00;;;9.70;99.90;;;;;;5012844;28;20445;-29
2024/01/06 04:09:37;;;;;;;9.47;7.17;;;9.70;99.90;;;;;;4997752;28;21252;-28
2024/01/06 04:12:03;;;;;;;9.40;6.87;;;9.70;99.90;;;;;;4997857;28;20424;-28
2024/01/06 04:14:29;;;;;;;9.53;6.73;;;9.70;99.90;;;;;;4996400;28;20436;-27
2024/01/06 04:17:03;;;;;;;10.73;7.67;;;9.70;99.90;;;;;;4997877;28;20460;-26
2024/01/06 04:19:29;;;;;;;10.80;7.23;;;9.70;99.90;;;;;;4997587;28;21023;-27
2024/01/06 04:21:55;;;;;;;9.83;6.60;;;9.70;99.90;;;;;;4998255;28;20428;-27
2024/01/06 04:24:23;;;;;;;7.67;6.60;;;9.70;99.90;;;;;;4998369;28;20481;-28
2024/01/06 04:26:50;;;;;;;8.57;6.70;;;9.70;99.90;;;;;;4997914;28;21034;-27
2024/01/06 04:29:16;;;;;;;9.17;7.10;;;9.70;99.90;;;;;;4995438;28;20483;-26
2024/01/06 04:31:44;;;;;;;9.30;6.80;;;9.70;99.90;;;;;;4997044;28;20444;-29
2024/01/06 04:34:12;;;;;;;10.30;7.50;;;9.70;99.90;;;;;;4995647;28;20436;-28
2024/01/06 04:36:41;;;;;;;8.23;6.50;;;9.70;99.90;;;;;;5011883;28;20428;-27
2024/01/06 04:39:08;;;;;;;9.90;6.50;;;9.70;99.90;;;;;;4997373;28;20448;-26
2024/01/06 04:41:36;;;;;;;9.47;6.03;;;9.70;99.90;;;;;;5001173;28;20511;-27
2024/01/06 04:44:02;;;;;;;12.70;7.80;;;9.70;99.90;;;;;;5001017;28;20435;-29
2024/01/06 04:46:31;;;;;;;9.13;6.93;;;9.70;99.90;;;;;;5002517;28;20888;-27
2024/01/06 04:48:57;;;;;;;9.97;6.67;;;9.60;99.90;;;;;;5000177;28;20905;-27
2024/01/06 04:51:25;;;;;;;9.30;6.87;;;9.60;99.90;;;;;;5000513;28;21271;-27
2024/01/06 04:53:51;;;;;;;9.07;6.37;;;9.70;99.90;;;;;;5001428;28;20860;-26
2024/01/06 04:56:17;;;;;;;7.83;6.07;;;9.60;99.90;;;;;;4999521;28;21042;-26
2024/01/06 04:58:43;;;;;;;8.70;6.97;;;9.60;99.90;;;;;;5000381;28;20441;-28
2024/01/06 05:01:09;;;;;;;8.13;6.17;;;9.60;99.90;;;;;;5000831;28;20463;-27
2024/01/06 05:03:35;;;;;;;7.80;6.67;;;9.60;99.90;;;;;;5015853;28;20467;-27
2024/01/06 05:06:01;;;;;;;9.67;6.83;;;9.60;99.90;;;;;;4999240;28;20448;-27
2024/01/06 05:08:30;;;;;;;9.23;7.10;;;9.70;99.90;;;;;;4998843;28;20860;-28
2024/01/06 05:10:56;;;;;;;10.23;7.20;;;9.60;99.90;;;;;;5001151;28;21245;-26
2024/01/06 05:13:22;;;;;;;9.50;7.10;;;9.60;99.90;;;;;;5000907;28;20512;-28
2024/01/06 05:15:50;;;;;;;7.43;5.83;;;9.60;99.90;;;;;;5001313;28;21382;-27
2024/01/06 05:18:17;;;;;;;12.10;6.30;;;9.60;99.90;;;;;;5000751;28;20451;-27
2024/01/06 05:20:43;;;;;;;7.27;5.80;;;9.70;99.90;;;;;;4982925;28;20472;-28
2024/01/06 05:23:10;;;;;;;9.70;6.80;;;9.60;99.90;;;;;;4983128;28;20817;-28
2024/01/06 05:25:38;;;;;;;7.63;5.87;;;9.60;99.90;;;;;;4999086;28;20770;-27
2024/01/06 05:28:05;;;;;;;8.40;6.13;;;9.60;99.90;;;;;;4998922;28;20445;-27
2024/01/06 05:30:31;;;;;;;7.63;5.70;;;9.60;99.90;;;;;;4998654;28;20218;-27
2024/01/06 05:32:59;;;;;;;7.37;5.83;;;9.60;99.90;;;;;;4999193;28;20469;-26
2024/01/06 05:35:25;;;;;;;10.40;7.00;;;9.60;99.90;;;;;;4999092;28;21628;-27
2024/01/06 05:37:51;;;;;;;7.50;6.00;;;9.60;99.90;;;;;;4999152;28;20436;-28
2024/01/06 05:40:18;;;;;;;8.97;6.07;;;9.60;99.90;;;;;;5000432;28;20448;-28
2024/01/06 05:42:43;;;;;;;7.77;5.90;;;9.60;99.90;;;;;;5000484;28;20424;-25
2024/01/06 05:45:13;;;;;;;6.90;5.30;;;9.60;99.90;;;;;;4999346;28;20822;-26
2024/01/06 05:47:39;;;;;;;7.37;5.73;;;9.60;99.90;;;;;;5000529;28;20577;-27
2024/01/06 05:50:09;;;;;;;7.83;5.57;;;9.60;99.90;;;;;;4999766;28;20484;-29
2024/01/06 05:52:36;;;;;;;7.03;5.50;;;9.60;99.90;;;;;;4997970;28;20451;-25
2024/01/06 05:55:07;;;;;;;8.00;5.80;;;9.60;99.90;;;;;;4998446;28;20475;-27
2024/01/06 05:57:33;;;;;;;7.37;5.60;;;9.60;99.90;;;;;;4998618;28;20780;-28
2024/01/06 06:00:02;;;;;;;8.13;5.53;;;9.60;99.90;;;;;;5000320;28;20459;-29
2024/01/06 06:02:39;;;;;;;7.43;5.23;;;9.60;99.90;;;;;;4998054;28;20435;-28
2024/01/06 06:05:06;;;;;;;7.50;5.50;;;9.60;99.90;;;;;;4999689;28;20425;-29
2024/01/06 06:07:32;;;;;;;7.90;6.10;;;9.60;99.90;;;;;;5012085;28;20483;-27
2024/01/06 06:10:09;;;;;;;6.60;5.40;;;9.60;99.90;;;;;;5000025;28;20987;-27
2024/01/06 06:12:38;;;;;;;7.77;6.00;;;9.60;99.90;;;;;;4999690;28;20432;-27
2024/01/06 06:15:06;;;;;;;7.20;6.00;;;9.60;99.90;;;;;;4999981;28;20441;-26
2024/01/06 06:17:33;;;;;;;6.83;5.43;;;9.60;99.90;;;;;;4999393;28;20844;-27
2024/01/06 06:19:59;;;;;;;8.63;5.47;;;9.60;99.90;;;;;;4998974;28;20455;-27
2024/01/06 06:22:31;;;;;;;7.43;6.07;;;9.60;99.90;;;;;;4980135;28;20436;-28
2024/01/06 06:25:01;;;;;;;6.90;5.93;;;9.60;99.90;;;;;;5013808;28;20451;-28
2024/01/06 06:27:27;;;;;;;7.50;5.80;;;9.60;99.90;;;;;;4998759;28;20498;-26
2024/01/06 06:29:54;;;;;;;8.27;5.70;;;9.60;99.90;;;;;;4995527;28;20519;-28
2024/01/06 06:32:20;;;;;;;7.77;5.87;;;9.60;99.90;;;;;;5014182;28;20444;-28
2024/01/06 06:34:48;;;;;;;9.47;5.53;;;9.60;99.90;;;;;;4999493;28;20444;-28
2024/01/06 06:37:16;;;;;;;10.37;7.17;;;9.60;99.90;;;;;;4998239;28;20479;-27
2024/01/06 06:39:45;;;;;;;7.73;6.10;;;9.60;99.90;;;;;;4999003;28;20446;-26
2024/01/06 06:42:11;;;;;;;9.60;6.43;;;9.60;99.90;;;;;;4995188;28;20964;-25
2024/01/06 06:44:37;;;;;;;8.30;6.50;;;9.60;99.90;;;;;;5013477;28;20468;-29
2024/01/06 06:47:03;;;;;;;8.67;6.50;;;9.60;99.90;;;;;;4998041;28;20440;-27
2024/01/06 06:49:29;;;;;;;11.03;7.50;;;9.60;99.90;;;;;;4997521;28;21139;-27
2024/01/06 06:52:03;;;;;;;9.40;6.70;;;9.60;99.90;;;;;;4997251;28;20444;-28
2024/01/06 06:54:29;;;;;;;9.83;6.50;;;9.60;99.90;;;;;;5012759;28;20420;-27
2024/01/06 06:56:55;;;;;;;9.07;6.53;;;9.60;99.90;;;;;;4993720;28;20440;-26
2024/01/06 06:59:21;;;;;;;8.67;6.77;;;9.50;99.90;;;;;;4995523;28;20531;-29
2024/01/06 07:01:50;;;;;;;8.87;6.37;;;9.60;99.90;;;;;;5035522;22;20561;-92
2024/01/06 07:04:16;;;;;;;11.10;6.93;;;9.50;99.90;;;;;;5012558;28;20908;-87
2024/01/06 07:06:42;;;;;;;7.63;6.10;;;9.50;99.90;;;;;;5025589;28;20513;-83
2024/01/06 07:09:08;;;;;;;10.10;7.60;;;9.50;99.90;;;;;;5030337;28;20483;-84
2024/01/06 07:11:36;;;;;;;10.10;8.47;;;9.50;99.90;;;;;;5029725;28;20502;-86
2024/01/06 07:14:08;;;;;;;9.37;6.73;;;9.50;99.90;;;;;;5026748;28;20231;-86
2024/01/06 07:16:39;;;;;;;8.00;5.77;;;9.50;99.90;;;;;;5025461;28;20447;-84
2024/01/06 07:19:05;;;;;;;8.47;7.07;;;9.50;99.90;;;;;;5026368;28;20439;-83
2024/01/06 07:21:37;;;;;;;10.47;7.10;;;9.50;99.90;;;;;;5030768;28;20435;-85
2024/01/06 07:24:05;;;;;;;9.70;6.80;;;9.50;99.90;;;;;;5031288;28;20753;-88
2024/01/06 07:26:31;;;;;;;9.13;7.10;;;9.50;99.90;;;;;;5031869;28;20517;-84
2024/01/06 07:29:01;;;;;;;9.27;7.13;;;9.50;99.90;;;;;;5030216;28;21047;-83
2024/01/06 07:31:27;;;;;;;8.70;6.90;;;9.50;99.90;;;;;;5030194;28;20471;-88
2024/01/06 07:33:56;;;;;;;7.53;5.97;;;9.50;99.90;;;;;;5029713;28;20580;-85
2024/01/06 07:36:24;;;;;;;9.47;6.80;;;9.50;99.90;;;;;;5031664;28;20514;-90
2024/01/06 07:38:49;;;;;;;10.30;6.70;;;9.50;99.90;;;;;;5010448;28;20950;-90
2024/01/06 07:41:15;;;;;;;9.60;7.00;;;9.50;99.90;;;;;;5031098;28;20754;-91
2024/01/06 07:43:41;;;;;;;9.97;6.67;;;9.50;99.90;;;;;;5032852;28;20741;-88
2024/01/06 07:46:09;;;;;;;11.33;6.70;;;9.50;99.90;;;;;;5027341;28;20487;-90
2024/01/06 07:49:01;;;;;;;9.10;7.30;;;9.50;99.90;;;;;;5030165;28;20204;-88
2024/01/06 07:51:29;;;;;;;10.30;6.83;;;9.50;99.90;;;;;;5023639;28;20585;-83
2024/01/06 07:53:58;;;;;;;7.70;6.50;;;9.50;99.90;;;;;;5024519;28;20498;-89
2024/01/06 07:56:35;;;;;;;10.10;7.17;;;9.40;99.90;;;;;;5026191;28;20439;-91
2024/01/06 07:59:02;;;;;;;8.43;6.17;;;9.50;99.90;;;;;;5023809;28;20423;-88
2024/01/06 08:01:28;;;;;;;8.77;7.37;;;9.50;99.90;;;;;;5009506;28;20835;-91
2024/01/06 08:03:54;;;;;;;8.70;7.37;;;9.50;99.90;;;;;;5010943;28;20897;-86
2024/01/06 08:06:20;;;;;;;11.60;8.00;;;9.50;99.90;;;;;;5037847;28;20457;-87
2024/01/06 08:08:46;;;;;;;9.13;7.60;;;9.50;99.90;;;;;;5018279;28;20559;-91
2024/01/06 08:11:12;;;;;;;9.37;6.97;;;9.50;99.90;;;;;;5027473;28;20565;-89
2024/01/06 08:13:38;;;;;;;10.57;6.80;;;9.40;99.90;;;;;;5027170;28;20511;-86
2024/01/06 08:16:05;;;;;;;8.27;6.73;;;9.50;99.90;;;;;;5031136;28;20519;-83
2024/01/06 08:18:31;;;;;;;8.97;6.70;;;9.40;99.90;;;;;;5022482;28;20916;-88
2024/01/06 08:20:58;;;;;;;11.00;7.60;;;9.40;99.90;;;;;;5016151;28;20505;-87
2024/01/06 08:23:27;;;;;;;11.40;8.10;;;9.40;99.90;;;;;;5016159;28;20435;-85
2024/01/06 08:25:53;;;;;;;9.10;6.50;;;9.40;99.90;;;;;;5030157;28;20454;-83
2024/01/06 08:28:19;;;;;;;10.43;8.30;;;9.40;99.90;;;;;;5012749;28;20433;-86
2024/01/06 08:30:45;;;;;;;11.80;7.57;;;9.40;99.90;;;;;;5029760;28;20517;-88
2024/01/06 08:33:11;;;;;;;9.93;7.13;;;9.40;99.90;;;;;;5012899;28;20441;-88
2024/01/06 08:35:40;;;;;;;10.43;7.40;;;9.40;99.90;;;;;;5036505;28;20475;-84
2024/01/06 08:38:09;;;;;;;10.53;7.20;;;9.40;99.90;;;;;;5042982;28;20436;-86
2024/01/06 08:40:35;;;;;;;9.60;7.17;;;9.40;99.90;;;;;;5033506;28;20467;-86
2024/01/06 08:43:02;;;;;;;10.27;6.50;;;9.40;99.90;;;;;;5016666;28;20451;-87
2024/01/06 08:45:28;;;;;;;10.73;7.90;;;9.40;99.90;;;;;;5032441;28;20457;-88
2024/01/06 08:47:54;;;;;;;11.27;7.73;;;9.40;99.90;;;;;;5028508;28;20517;-86
2024/01/06 08:50:20;;;;;;;11.93;7.40;;;9.40;99.90;;;;;;5028642;28;20494;-89
2024/01/06 08:52:46;;;;;;;11.50;7.97;;;9.40;99.90;;;;;;5029047;28;20448;-87
2024/01/06 08:55:12;;;;;;;12.43;8.27;;;9.40;99.90;;;;;;5029096;28;20423;-86
2024/01/06 08:57:38;;;;;;;10.07;7.27;;;9.40;99.90;;;;;;5023148;28;20887;-82
2024/01/06 09:00:05;;;;;;;12.67;8.70;;;9.40;99.90;;;;;;5012558;28;20495;-89
2024/01/06 09:02:31;;;;;;;13.57;8.13;;;9.40;99.90;;;;;;5031272;28;20450;-84
2024/01/06 09:04:57;;;;;;;11.60;8.37;;;9.40;99.90;;;;;;5036954;28;20443;-89
2024/01/06 09:07:23;;;;;;;12.43;8.47;;;9.40;99.90;;;;;;5032770;28;21237;-88
2024/01/06 09:09:49;;;;;;;11.60;7.80;;;9.40;99.90;;;;;;5029625;28;20541;-90
2024/01/06 09:12:15;;;;;;;13.33;7.70;;;9.40;99.90;;;;;;5036218;28;20476;-92
2024/01/06 09:14:40;;;;;;;11.30;8.30;;;9.40;99.90;;;;;;5029737;28;21003;-88
2024/01/06 09:17:07;;;;;;;11.60;8.50;;;9.40;99.90;;;;;;5034117;28;20580;-89
2024/01/06 09:19:33;;;;;;;11.90;9.23;;;9.40;99.90;;;;;;5015095;28;20460;-85
2024/01/06 09:21:59;;;;;;;13.60;9.27;;;9.40;99.90;;;;;;5032502;28;20426;-92
2024/01/06 09:24:25;;;;;;;13.67;9.73;;;9.40;99.90;;;;;;5030725;28;20434;-89
2024/01/06 09:26:51;;;;;;;13.73;8.70;;;9.40;99.90;;;;;;5012016;28;20547;-87
2024/01/06 09:29:17;;;;;;;15.73;9.50;;;9.40;99.90;;;;;;5034991;28;20423;-87
2024/01/06 09:31:43;;;;;;;13.33;8.97;;;9.40;99.90;;;;;;5073555;22;21988;-84
2024/01/06 09:34:10;;;;;;;15.83;9.90;;;9.40;99.90;;;;;;5047434;28;20918;-84
2024/01/06 09:36:36;;;;;;;15.00;8.80;;;9.40;99.90;;;;;;5047947;28;20435;-89
2024/01/06 09:39:02;;;;;;;12.77;9.43;;;9.40;99.90;;;;;;5048743;28;20505;-87
2024/01/06 09:41:28;;;;;;;14.27;9.67;;;9.40;99.90;;;;;;5051645;28;20458;-88
2024/01/06 09:43:54;;;;;;;16.90;10.40;;;9.40;99.90;;;;;;5030925;28;20487;-88
2024/01/06 09:46:27;;;;;;;13.57;9.30;;;9.30;99.90;;;;;;5030846;28;20485;-91
2024/01/06 09:48:54;;;;;;;17.83;9.20;;;9.30;99.90;;;;;;5053982;28;20426;-83
2024/01/06 09:51:21;;;;;;;13.13;8.80;;;9.40;99.90;;;;;;5049605;28;20486;-87
2024/01/06 09:54:01;;;;;;;15.60;9.63;;;9.40;99.90;;;;;;5031673;28;20477;-85
2024/01/06 09:56:39;;;;;;;17.33;10.60;;;9.30;99.90;;;;;;5051284;28;20431;-84
2024/01/06 09:59:05;;;;;;;15.10;10.20;;;9.30;99.90;;;;;;5051969;28;20439;-89
2024/01/06 10:01:33;;;;;;;15.30;10.10;;;9.30;99.90;;;;;;5046440;28;20417;-91
2024/01/06 10:03:59;;;;;;;14.37;9.87;;;9.30;99.90;;;;;;5036569;28;20435;-88
2024/01/06 10:06:27;;;;;;;14.83;9.50;;;9.30;99.90;;;;;;5051067;28;20455;-84
2024/01/06 10:08:53;;;;;;;16.73;10.10;;;9.30;99.90;;;;;;5055652;28;20439;-87
2024/01/06 10:11:21;;;;;;;16.27;10.20;;;9.30;99.90;;;;;;5053620;28;20502;-87
2024/01/06 10:13:51;;;;;;;13.10;8.47;;;9.30;99.90;;;;;;5050492;28;20511;-88
2024/01/06 10:16:17;;;;;;;16.33;10.20;;;9.30;99.90;;;;;;5048905;28;20461;-88
2024/01/06 10:18:44;;;;;;;16.13;10.33;;;9.30;99.90;;;;;;5053255;28;20465;-87
2024/01/06 10:21:17;;;;;;;19.10;12.67;;;9.30;99.90;;;;;;5051998;28;20480;-88
2024/01/06 10:23:45;;;;;;;14.60;9.60;;;9.30;99.90;;;;;;5047509;28;20462;-86
2024/01/06 10:26:14;;;;;;;18.13;10.63;;;9.30;99.90;;;;;;5034723;28;20454;-91
2024/01/06 10:28:41;;;;;;;17.30;10.70;;;9.30;99.90;;;;;;5048244;28;20455;-91
2024/01/06 10:31:08;;;;;;;15.73;10.90;;;9.30;99.90;;;;;;5046770;28;20470;-93
2024/01/06 10:33:34;;;;;;;16.13;10.93;;;9.30;99.90;;;;;;5035815;28;20455;-86
2024/01/06 10:36:03;;;;;;;22.90;12.97;;;9.30;99.90;;;;;;5052199;28;20474;-90
2024/01/06 10:38:29;;;;;;;19.30;12.33;;;9.30;99.90;;;;;;5033045;28;20491;-87
2024/01/06 10:41:09;;;;;;;17.27;11.50;;;9.30;99.90;;;;;;5046275;28;20439;-91
2024/01/06 10:43:37;;;;;;;18.80;12.20;;;9.30;99.90;;;;;;5047079;28;20430;-93
2024/01/06 10:46:10;;;;;;;15.77;11.00;;;9.20;99.90;;;;;;5053353;28;20547;-92
2024/01/06 10:48:38;;;;;;;19.70;12.37;;;9.20;99.90;;;;;;5044951;28;20503;-86
2024/01/06 10:51:07;;;;;;;16.80;11.13;;;9.30;99.90;;;;;;5046942;28;20466;-86
2024/01/06 10:53:37;;;;;;;19.80;12.47;;;9.30;99.90;;;;;;5051613;28;20443;-86
2024/01/06 10:56:03;;;;;;;17.90;11.40;;;9.20;99.90;;;;;;5067383;28;20503;-82
2024/01/06 10:58:32;;;;;;;19.23;11.50;;;9.20;99.90;;;;;;5042212;28;20516;-88
2024/01/06 11:01:01;;;;;;;17.53;10.90;;;9.20;99.90;;;;;;5042828;28;20892;-85
2024/01/06 11:03:31;;;;;;;27.30;15.23;;;9.20;99.90;;;;;;5047715;28;20974;-83
2024/01/06 11:05:59;;;;;;;27.33;16.00;;;9.20;99.90;;;;;;5059810;28;20434;-87
2024/01/06 11:08:26;;;;;;;35.23;19.90;;;9.20;99.90;;;;;;5049291;28;20427;-90
2024/01/06 11:10:57;;;;;;;23.33;14.07;;;9.20;99.90;;;;;;5047655;28;20478;-89
2024/01/06 11:13:23;;;;;;;24.70;13.90;;;9.20;99.90;;;;;;5034724;28;20453;-86
2024/01/06 11:15:54;;;;;;;18.30;12.00;;;9.20;99.90;;;;;;5030449;28;20573;-84
2024/01/06 11:18:40;;;;;;;20.47;12.80;;;9.20;99.90;;;;;;5033743;28;20458;-84
2024/01/06 11:21:24;;;;;;;20.33;11.70;;;9.20;99.90;;;;;;5050262;28;20469;-87
2024/01/06 11:24:17;;;;;;;19.90;12.30;;;9.20;99.90;;;;;;5047499;28;20487;-89
2024/01/06 11:26:56;;;;;;;18.87;12.80;;;9.20;99.90;;;;;;5047318;28;20429;-88
2024/01/06 11:29:22;;;;;;;19.07;11.33;;;9.20;99.90;;;;;;5046932;28;20521;-83
2024/01/06 11:32:16;;;;;;;17.93;11.50;;;9.20;99.90;;;;;;5026625;28;20575;-88
2024/01/06 11:34:49;;;;;;;17.23;11.83;;;9.10;99.90;;;;;;5047543;28;20447;-84
2024/01/06 11:37:18;;;;;;;17.90;10.93;;;9.20;99.90;;;;;;5048011;28;20922;-86
2024/01/06 11:39:46;;;;;;;20.13;11.70;;;9.20;99.90;;;;;;5049938;28;20426;-88
2024/01/06 11:42:17;;;;;;;18.33;12.00;;;9.20;99.90;;;;;;5030437;28;20514;-91
2024/01/06 11:44:52;;;;;;;14.80;10.27;;;9.10;99.90;;;;;;5050124;28;20888;-89
2024/01/06 11:47:23;;;;;;;17.43;10.03;;;9.20;99.90;;;;;;5029902;28;20424;-88
2024/01/06 11:49:53;;;;;;;15.53;10.80;;;9.20;99.90;;;;;;5034694;28;20544;-87
2024/01/06 11:52:25;;;;;;;19.67;11.60;;;9.20;99.90;;;;;;5053462;28;21112;-86
2024/01/06 11:54:54;;;;;;;17.83;10.20;;;9.20;99.90;;;;;;5050793;28;20505;-87
2024/01/06 11:57:20;;;;;;;18.37;10.77;;;9.20;99.90;;;;;;5056792;28;20427;-86
2024/01/06 11:59:47;;;;;;;14.00;10.07;;;9.20;99.90;;;;;;5057451;28;20461;-87
2024/01/06 12:02:15;;;;;;;17.57;10.53;;;9.10;99.90;;;;;;5064904;28;20433;-85
2024/01/06 12:04:51;;;;;;;17.40;10.00;;;9.20;99.90;;;;;;5044600;28;20450;-88
2024/01/06 12:07:18;;;;;;;19.93;11.90;;;9.20;99.90;;;;;;5051234;28;20430;-89
2024/01/06 12:09:47;;;;;;;19.33;10.70;;;9.20;99.90;;;;;;5051441;28;20600;-90
2024/01/06 12:12:16;;;;;;;17.33;12.13;;;9.20;99.90;;;;;;5050272;28;20903;-86
2024/01/06 12:14:46;;;;;;;18.87;11.17;;;9.20;99.90;;;;;;5050531;28;20836;-88
2024/01/06 12:17:14;;;;;;;21.80;11.60;;;9.10;99.90;;;;;;5051083;28;20423;-86
2024/01/06 12:19:43;;;;;;;18.73;13.30;;;9.10;99.90;;;;;;5055081;28;20537;-87
2024/01/06 12:22:16;;;;;;;21.93;12.87;;;9.10;99.90;;;;;;5058318;28;20545;-88
2024/01/06 12:24:42;;;;;;;21.17;13.50;;;9.10;99.90;;;;;;5049201;28;20430;-89
2024/01/06 12:27:35;;;;;;;19.37;13.27;;;9.10;99.90;;;;;;5056836;28;20418;-88
2024/01/06 12:30:02;;;;;;;22.27;14.00;;;9.10;99.90;;;;;;5054564;28;20552;-88
2024/01/06 12:32:28;;;;;;;20.27;13.83;;;9.20;99.90;;;;;;5056502;28;20473;-86
2024/01/06 12:34:55;;;;;;;17.87;12.30;;;9.10;99.90;;;;;;5033297;28;20485;-89
2024/01/06 12:37:27;;;;;;;17.47;12.10;;;9.10;99.90;;;;;;5049853;28;20452;-90
2024/01/06 12:39:58;;;;;;;19.10;12.50;;;9.10;99.90;;;;;;5045898;28;20551;-90
2024/01/06 12:42:25;;;;;;;17.93;11.37;;;9.10;99.90;;;;;;5053866;28;20442;-89
2024/01/06 12:44:53;;;;;;;17.30;12.10;;;9.10;99.90;;;;;;5033870;28;20446;-89
2024/01/06 12:50:28;;;;;;;21.57;12.50;;;9.10;99.90;;;;;;5032297;28;20485;-87
2024/01/06 12:52:54;;;;;;;22.23;13.90;;;9.10;99.90;;;;;;5034392;28;20431;-85
2024/01/06 12:55:20;;;;;;;21.10;13.63;;;9.10;99.90;;;;;;5056405;28;20508;-85
2024/01/06 12:57:46;;;;;;;20.93;13.40;;;9.10;99.90;;;;;;5059574;28;20966;-85